Oregon City, California
Current Conditions -  °F | °C
As of 3:53 AM on Thursday 23 Oct 2014 (Local Time) from KOVE Reporting Station
Clear Clear  
Wind Chill: 63°   Ceiling: Unl
Heat Index: 63°   Visibility: 10mi
Dew Point: 45°   Wind: 5mph
Humidity: 52%   Direction: 130°SE
Pressure: 30.02"   Gusts: NA
Location:  39.5324°N, 121.648°W
Report Text: KOVE 231053Z AUTO 13004KT 10SM CLR 17/07 A3002 RMK AO2 SLP167 T01720072 $
Loading
Personal Weather Stations






























Interactive Weather Map
Tropical Storm Tracking
New forecast layout! Learn more

10-Day Weather Forecast

Advertisements
Track Severe Weather on mobile